HESH/SSH METAR and TAF weather

Enter ICAO airport designator
Station Type Date Time Source
HESH METAR 2021/09/24 00:00 UTC NOAA

HESH 240000Z 35011KT CAVOK 29/17 Q1008 NOSIG


Station Type Date Time Source
HESH Decoded METAR 2021/09/24 00:00 UTC NOAA

Sharm El Sheikhintl, Egypt (HESH) 27-58N 034-23E
Sep 23, 2021 - 08:00 PM EDT / 2021.09.24 0000 UTC
Wind: from the N (350 degrees) at 13 MPH (11 KT):0
Visibility: greater than 7 mile(s):0
Temperature: 84 F (29 C)
Dew Point: 62 F (17 C)
Relative Humidity: 48%
Pressure (altimeter): 29.77 in. Hg (1008 hPa)
ob: HESH 240000Z 35011KT CAVOK 29/17 Q1008 NOSIG
cycle: 0

Station Type Date Time Source
HESH TAF 2021/09/23 18:45 UTC NOAA

TAF TAF HESH 231700Z 2318/2424 36006G18KT CAVOK

Example: see airport list